Time;durP1;ratioP1;P1;durP2;ratioP2;P2;SDS_P1;SDS_P2;PMS_P1;PMS_P2;Temp;Humidity;BMP_temperature;BMP_pressure;BME280_temperature;BME280_humidity;BME280_pressure;Samples;Min_cycle;Max_cycle;Signal;HPM_P1;HPM_P2
2024/02/02 00:00:52;;;;;;;3.80;1.40;;;;;;;;;;5862746;28;20368;-80
2024/02/02 00:03:43;;;;;;;4.20;2.33;;;;;;;;;;5860901;28;20466;-79
2024/02/02 00:06:34;;;;;;;10.77;2.85;;;;;;;;;;5860854;28;20499;-79
2024/02/02 00:09:25;;;;;;;8.52;2.13;;;;;;;;;;5860709;28;20064;-79
2024/02/02 00:12:16;;;;;;;2.28;1.63;;;;;;;;;;5877185;28;20045;-79
2024/02/02 00:15:08;;;;;;;2.25;2.00;;;;;;;;;;5860831;28;20120;-79
2024/02/02 00:17:59;;;;;;;3.03;1.23;;;;;;;;;;5862706;28;20052;-80
2024/02/02 00:20:52;;;;;;;4.47;1.70;;;;;;;;;;5860626;28;20154;-80
2024/02/02 00:23:43;;;;;;;9.73;3.03;;;;;;;;;;5876660;28;20045;-79
2024/02/02 00:26:34;;;;;;;4.97;1.63;;;;;;;;;;5861974;28;20097;-79
2024/02/02 00:29:25;;;;;;;2.95;1.73;;;;;;;;;;5862006;28;20060;-80
2024/02/02 00:32:15;;;;;;;3.03;2.17;;;;;;;;;;5860424;28;20048;-79
2024/02/02 00:35:06;;;;;;;5.72;2.35;;;;;;;;;;5860698;28;20041;-79
2024/02/02 00:37:57;;;;;;;4.90;3.17;;;;;;;;;;5862451;28;20052;-80
2024/02/02 00:40:48;;;;;;;2.83;1.67;;;;;;;;;;5860601;28;20068;-80
2024/02/02 00:43:39;;;;;;;1.65;1.55;;;;;;;;;;5861738;28;20041;-79
2024/02/02 00:46:30;;;;;;;2.63;0.93;;;;;;;;;;5824108;28;20046;-80
2024/02/02 00:49:22;;;;;;;10.20;2.40;;;;;;;;;;5837553;28;20057;-79
2024/02/02 00:52:13;;;;;;;4.97;1.40;;;;;;;;;;5821485;28;20046;-79
2024/02/02 00:55:04;;;;;;;11.32;3.30;;;;;;;;;;5837717;28;20045;-79
2024/02/02 00:57:55;;;;;;;3.60;1.33;;;;;;;;;;5854153;28;20392;-79
2024/02/02 01:00:46;;;;;;;10.10;1.58;;;;;;;;;;5821227;28;20049;-79
2024/02/02 01:03:37;;;;;;;2.95;2.28;;;;;;;;;;5825455;28;20046;-79
2024/02/02 01:06:28;;;;;;;3.05;2.22;;;;;;;;;;5838729;28;20482;-79
2024/02/02 01:09:20;;;;;;;1.52;1.42;;;;;;;;;;5838400;28;20054;-79
2024/02/02 01:12:11;;;;;;;4.07;2.80;;;;;;;;;;5837296;28;20069;-79
2024/02/02 01:15:02;;;;;;;13.68;1.75;;;;;;;;;;5838568;28;20057;-78
2024/02/02 01:17:53;;;;;;;1.20;0.85;;;;;;;;;;5837530;28;20054;-79
2024/02/02 01:20:44;;;;;;;2.72;1.83;;;;;;;;;;5837342;28;20046;-79
2024/02/02 01:23:35;;;;;;;1.80;1.65;;;;;;;;;;5838547;28;20045;-79
2024/02/02 01:26:26;;;;;;;5.20;1.35;;;;;;;;;;5838461;28;20404;-79
2024/02/02 01:29:17;;;;;;;4.13;2.75;;;;;;;;;;5853288;28;20061;-79
2024/02/02 01:32:07;;;;;;;1.27;1.17;;;;;;;;;;5836956;28;20045;-79
2024/02/02 01:34:58;;;;;;;5.78;2.55;;;;;;;;;;5839106;28;20060;-79
2024/02/02 01:37:49;;;;;;;4.40;2.05;;;;;;;;;;5842252;28;20127;-79
2024/02/02 01:40:41;;;;;;;0.52;0.52;;;;;;;;;;5840984;28;20357;-80
2024/02/02 01:43:32;;;;;;;10.70;1.60;;;;;;;;;;5842266;28;20050;-80
2024/02/02 01:46:22;;;;;;;1.00;1.00;;;;;;;;;;5840835;28;20048;-79
2024/02/02 01:49:13;;;;;;;4.18;2.63;;;;;;;;;;5840795;28;20049;-80
2024/02/02 01:52:05;;;;;;;0.98;0.85;;;;;;;;;;5840881;28;20408;-79
2024/02/02 01:54:57;;;;;;;6.40;2.17;;;;;;;;;;5857505;28;20089;-79
2024/02/02 01:57:47;;;;;;;3.40;1.98;;;;;;;;;;5840685;28;20050;-80
2024/02/02 02:00:38;;;;;;;1.48;1.38;;;;;;;;;;5840483;28;20053;-80
2024/02/02 02:03:29;;;;;;;3.75;2.70;;;;;;;;;;5840264;28;20050;-80
2024/02/02 02:06:20;;;;;;;5.05;1.67;;;;;;;;;;5841669;28;20061;-79
2024/02/02 02:09:11;;;;;;;5.78;2.00;;;;;;;;;;5840359;28;20065;-79
2024/02/02 02:12:03;;;;;;;1.02;0.80;;;;;;;;;;5841454;28;20053;-79
2024/02/02 02:14:53;;;;;;;1.10;0.90;;;;;;;;;;5857358;28;20053;-79
2024/02/02 02:17:44;;;;;;;4.03;2.30;;;;;;;;;;5840218;28;20045;-80
2024/02/02 02:20:36;;;;;;;2.83;2.25;;;;;;;;;;5840317;28;20353;-79
2024/02/02 02:23:27;;;;;;;0.55;0.55;;;;;;;;;;5840461;28;20049;-79
2024/02/02 02:26:19;;;;;;;5.82;1.80;;;;;;;;;;5841319;28;20076;-79
2024/02/02 02:29:10;;;;;;;3.95;1.35;;;;;;;;;;5840194;28;20057;-79
2024/02/02 02:32:01;;;;;;;2.15;1.50;;;;;;;;;;5841460;28;20046;-79
2024/02/02 02:34:52;;;;;;;5.60;1.20;;;;;;;;;;5841607;28;20491;-80
2024/02/02 02:37:43;;;;;;;3.10;1.40;;;;;;;;;;5839771;28;20541;-80
2024/02/02 02:40:33;;;;;;;3.47;2.47;;;;;;;;;;5856179;28;20495;-80
2024/02/02 02:43:24;;;;;;;2.13;1.20;;;;;;;;;;5840987;28;20130;-79
2024/02/02 02:46:15;;;;;;;0.65;0.65;;;;;;;;;;5840631;28;20046;-79
2024/02/02 02:49:06;;;;;;;7.00;1.88;;;;;;;;;;5839319;28;20053;-79
2024/02/02 02:51:57;;;;;;;2.42;1.77;;;;;;;;;;5840056;28;20410;-79
2024/02/02 02:54:48;;;;;;;4.20;2.13;;;;;;;;;;5823286;28;20045;-80
2024/02/02 02:57:39;;;;;;;10.77;2.00;;;;;;;;;;5839202;28;20049;-79
2024/02/02 03:00:31;;;;;;;6.85;2.08;;;;;;;;;;5840810;28;20052;-79
2024/02/02 03:03:22;;;;;;;2.92;1.83;;;;;;;;;;5855045;28;20042;-79
2024/02/02 03:06:13;;;;;;;3.90;0.80;;;;;;;;;;5838997;28;20056;-79
2024/02/02 03:09:04;;;;;;;1.70;1.58;;;;;;;;;;5840588;28;20045;-79
2024/02/02 03:11:56;;;;;;;2.45;1.60;;;;;;;;;;5840997;28;20566;-79
2024/02/02 03:14:46;;;;;;;4.22;2.55;;;;;;;;;;5855401;28;20121;-79
2024/02/02 03:17:37;;;;;;;3.72;1.80;;;;;;;;;;5840344;28;20526;-79
2024/02/02 03:20:28;;;;;;;5.70;2.28;;;;;;;;;;5838988;28;20503;-79
2024/02/02 03:23:19;;;;;;;1.92;0.60;;;;;;;;;;5838696;28;20053;-79
2024/02/02 03:26:10;;;;;;;2.45;1.30;;;;;;;;;;5838623;28;20069;-79
2024/02/02 03:29:01;;;;;;;3.88;1.98;;;;;;;;;;5839966;28;20049;-79
2024/02/02 03:31:52;;;;;;;3.53;1.88;;;;;;;;;;5840466;28;20050;-80
2024/02/02 03:34:42;;;;;;;6.05;3.20;;;;;;;;;;5838598;28;20046;-79
2024/02/02 03:37:33;;;;;;;5.18;2.20;;;;;;;;;;5854841;28;20056;-79
2024/02/02 03:40:24;;;;;;;9.85;1.27;;;;;;;;;;5822087;28;20057;-79
2024/02/02 03:43:15;;;;;;;4.65;1.40;;;;;;;;;;5838260;28;20053;-79
2024/02/02 03:46:06;;;;;;;3.60;1.63;;;;;;;;;;5822238;28;20042;-80
2024/02/02 03:48:59;;;;;;;1.45;1.27;;;;;;;;;;5838763;28;20487;-79
2024/02/02 03:51:50;;;;;;;1.55;1.38;;;;;;;;;;5861698;28;20044;-79
2024/02/02 03:54:41;;;;;;;4.32;2.50;;;;;;;;;;5861007;28;20041;-79
2024/02/02 03:57:31;;;;;;;2.08;1.92;;;;;;;;;;5860452;28;20507;-80
2024/02/02 04:00:22;;;;;;;7.07;2.22;;;;;;;;;;5862224;28;20503;-79
2024/02/02 04:03:13;;;;;;;1.55;0.40;;;;;;;;;;5860934;28;20045;-79
2024/02/02 04:06:05;;;;;;;1.58;1.13;;;;;;;;;;5844715;28;20072;-79
2024/02/02 04:08:56;;;;;;;3.08;1.02;;;;;;;;;;5861317;28;20046;-79
2024/02/02 04:11:46;;;;;;;1.23;0.80;;;;;;;;;;5862381;28;20052;-79
2024/02/02 04:14:37;;;;;;;0.68;0.68;;;;;;;;;;5854457;28;20053;-79
2024/02/02 04:17:28;;;;;;;1.20;0.95;;;;;;;;;;5859773;28;20056;-79
2024/02/02 04:20:19;;;;;;;0.20;0.20;;;;;;;;;;5843034;28;20507;-79
2024/02/02 04:23:09;;;;;;;2.28;2.08;;;;;;;;;;5858849;28;20057;-79
2024/02/02 04:26:00;;;;;;;1.85;1.55;;;;;;;;;;5860594;28;20041;-78
2024/02/02 04:28:51;;;;;;;10.07;2.72;;;;;;;;;;5861247;28;20068;-79
2024/02/02 04:31:42;;;;;;;5.25;1.67;;;;;;;;;;5860884;28;20045;-79
2024/02/02 04:34:33;;;;;;;1.70;0.82;;;;;;;;;;5860038;28;20132;-79
2024/02/02 04:37:24;;;;;;;15.40;2.03;;;;;;;;;;5860493;28;20152;-79
2024/02/02 04:40:15;;;;;;;1.60;1.50;;;;;;;;;;5861706;28;20062;-79
2024/02/02 04:43:05;;;;;;;1.73;1.63;;;;;;;;;;5860387;28;20052;-79
2024/02/02 04:45:56;;;;;;;1.02;0.95;;;;;;;;;;5860851;28;20049;-79
2024/02/02 04:48:47;;;;;;;2.05;1.85;;;;;;;;;;5844038;28;20499;-79
2024/02/02 04:51:38;;;;;;;1.17;1.08;;;;;;;;;;5861931;28;20491;-79
2024/02/02 04:54:29;;;;;;;4.10;3.00;;;;;;;;;;5844084;28;20049;-79
2024/02/02 04:57:20;;;;;;;1.65;1.55;;;;;;;;;;5860365;28;20049;-79
2024/02/02 05:00:12;;;;;;;1.10;1.05;;;;;;;;;;5860494;28;20111;-79
2024/02/02 05:03:03;;;;;;;2.33;1.83;;;;;;;;;;5860276;28;20472;-79
2024/02/02 05:05:54;;;;;;;3.20;2.38;;;;;;;;;;5861856;28;20045;-79
2024/02/02 05:08:45;;;;;;;9.60;1.65;;;;;;;;;;5862812;28;20091;-79
2024/02/02 05:11:36;;;;;;;6.15;2.42;;;;;;;;;;5866105;28;20042;-79
2024/02/02 05:14:26;;;;;;;4.32;2.30;;;;;;;;;;5864458;28;20567;-79
2024/02/02 05:17:17;;;;;;;5.05;1.70;;;;;;;;;;5864449;28;20523;-79
2024/02/02 05:20:09;;;;;;;2.20;1.70;;;;;;;;;;5864531;28;20041;-79
2024/02/02 05:23:00;;;;;;;3.83;2.08;;;;;;;;;;5848536;28;20056;-79
2024/02/02 05:25:50;;;;;;;0.50;0.50;;;;;;;;;;5864533;28;20037;-79
2024/02/02 05:28:41;;;;;;;2.55;1.75;;;;;;;;;;5864109;28;20092;-79
2024/02/02 05:31:32;;;;;;;6.78;2.40;;;;;;;;;;5864321;28;20139;-79
2024/02/02 05:34:23;;;;;;;2.90;1.75;;;;;;;;;;5865370;28;20041;-79
2024/02/02 05:37:14;;;;;;;5.68;0.70;;;;;;;;;;5847856;28;20057;-79
2024/02/02 05:40:06;;;;;;;0.70;0.70;;;;;;;;;;5864204;28;20041;-79
2024/02/02 05:42:59;;;;;;;2.53;2.25;;;;;;;;;;5865717;28;20045;-79
2024/02/02 05:45:50;;;;;;;0.50;0.50;;;;;;;;;;5864085;28;20053;-79
2024/02/02 05:48:40;;;;;;;2.17;1.92;;;;;;;;;;5863841;28;20072;-79
2024/02/02 05:51:31;;;;;;;6.28;1.75;;;;;;;;;;5865052;28;20069;-79
2024/02/02 05:54:22;;;;;;;2.83;1.63;;;;;;;;;;5864549;28;20056;-79
2024/02/02 05:57:13;;;;;;;2.28;1.42;;;;;;;;;;5863108;28;20132;-79
2024/02/02 06:00:05;;;;;;;1.80;1.00;;;;;;;;;;5863635;28;20057;-79
2024/02/02 06:02:56;;;;;;;14.48;1.00;;;;;;;;;;5863970;28;20049;-80
2024/02/02 06:05:47;;;;;;;1.27;0.85;;;;;;;;;;5863340;28;20038;-79
2024/02/02 06:08:38;;;;;;;3.90;1.40;;;;;;;;;;5864566;28;20389;-79
2024/02/02 06:11:29;;;;;;;1.20;1.05;;;;;;;;;;5863025;28;20060;-79
2024/02/02 06:14:20;;;;;;;1.60;1.50;;;;;;;;;;5864425;28;20499;-79
2024/02/02 06:17:11;;;;;;;1.75;1.45;;;;;;;;;;5863021;28;20049;-79
2024/02/02 06:20:02;;;;;;;0.80;0.80;;;;;;;;;;5862492;28;20057;-79
2024/02/02 06:22:53;;;;;;;2.88;2.63;;;;;;;;;;5863226;28;20055;-80
2024/02/02 06:25:44;;;;;;;1.70;1.05;;;;;;;;;;5862960;28;20069;-80
2024/02/02 06:28:35;;;;;;;1.65;1.17;;;;;;;;;;5862694;28;20045;-80
2024/02/02 06:31:26;;;;;;;7.07;1.63;;;;;;;;;;5862876;28;20049;-80
2024/02/02 06:34:17;;;;;;;4.80;2.92;;;;;;;;;;5862676;28;20073;-79
2024/02/02 06:37:08;;;;;;;1.20;1.13;;;;;;;;;;5862632;28;20415;-79
2024/02/02 06:40:03;;;;;;;1.63;1.25;;;;;;;;;;5863319;28;20167;-79
2024/02/02 06:42:54;;;;;;;1.88;1.42;;;;;;;;;;5839535;28;20046;-80
2024/02/02 06:45:45;;;;;;;2.72;1.40;;;;;;;;;;5839269;28;20052;-79
2024/02/02 06:48:39;;;;;;;13.32;2.40;;;;;;;;;;5839333;28;20385;-79
2024/02/02 06:51:30;;;;;;;4.63;2.10;;;;;;;;;;5839550;28;20052;-79
2024/02/02 06:54:20;;;;;;;4.53;1.77;;;;;;;;;;5839285;28;20057;-79
2024/02/02 06:57:12;;;;;;;1.48;1.02;;;;;;;;;;5839390;28;20038;-79
2024/02/02 07:00:03;;;;;;;5.18;2.92;;;;;;;;;;5839522;28;20403;-79
2024/02/02 07:02:54;;;;;;;1.35;1.27;;;;;;;;;;5839587;28;20056;-80
2024/02/02 07:05:45;;;;;;;14.00;2.28;;;;;;;;;;5839169;28;20057;-80
2024/02/02 07:08:36;;;;;;;1.73;1.63;;;;;;;;;;5840340;28;20579;-79
2024/02/02 07:11:33;;;;;;;5.20;2.60;;;;;;;;;;5839034;28;20060;-79
2024/02/02 07:14:33;;;;;;;15.88;2.63;;;;;;;;;;5838887;28;20049;-80
2024/02/02 07:17:40;;;;;;;2.65;1.45;;;;;;;;;;5838766;28;20117;-79
2024/02/02 07:20:32;;;;;;;4.63;2.42;;;;;;;;;;5838839;28;20042;-79
2024/02/02 07:23:37;;;;;;;15.95;2.95;;;;;;;;;;5839929;28;20099;-79
2024/02/02 07:26:31;;;;;;;5.28;1.25;;;;;;;;;;5838717;28;20061;-80
2024/02/02 07:29:38;;;;;;;0.75;0.75;;;;;;;;;;5838507;28;20057;-79
2024/02/02 07:32:29;;;;;;;14.55;4.63;;;;;;;;;;5837878;28;20512;-79
2024/02/02 07:35:34;;;;;;;2.38;2.03;;;;;;;;;;5838512;28;20496;-80
2024/02/02 07:38:53;;;;;;;1.38;1.08;;;;;;;;;;5838616;28;20613;-79
2024/02/02 07:41:44;;;;;;;14.45;2.33;;;;;;;;;;5839905;28;20077;-79
2024/02/02 07:44:35;;;;;;;1.35;1.10;;;;;;;;;;5839777;28;20113;-79
2024/02/02 07:47:26;;;;;;;15.63;3.42;;;;;;;;;;5838185;28;20046;-79
2024/02/02 07:50:17;;;;;;;2.40;1.85;;;;;;;;;;5839727;28;20058;-79
2024/02/02 07:53:08;;;;;;;2.88;2.55;;;;;;;;;;5838001;28;20049;-79
2024/02/02 07:55:59;;;;;;;5.88;2.10;;;;;;;;;;5822562;28;20049;-79
2024/02/02 07:58:49;;;;;;;7.55;1.75;;;;;;;;;;5838307;28;20408;-79
2024/02/02 08:01:40;;;;;;;3.65;0.95;;;;;;;;;;5839522;28;20046;-79
2024/02/02 08:04:31;;;;;;;3.53;2.15;;;;;;;;;;5842216;28;20041;-79
2024/02/02 08:07:22;;;;;;;2.53;2.08;;;;;;;;;;5862531;28;20056;-79
2024/02/02 08:10:13;;;;;;;2.50;1.55;;;;;;;;;;5862093;28;20048;-80
2024/02/02 08:13:04;;;;;;;3.38;2.53;;;;;;;;;;5862390;28;20349;-79
2024/02/02 08:15:55;;;;;;;19.38;4.28;;;;;;;;;;5861535;28;20045;-80
2024/02/02 08:18:45;;;;;;;3.35;1.85;;;;;;;;;;5860639;28;20041;-80
2024/02/02 08:21:36;;;;;;;4.22;1.33;;;;;;;;;;5860929;28;20100;-80
2024/02/02 08:24:28;;;;;;;2.42;1.15;;;;;;;;;;5862247;28;20045;-80
2024/02/02 08:27:19;;;;;;;4.72;2.28;;;;;;;;;;5841998;28;20557;-79
2024/02/02 08:32:53;;;;;;;;;;;;;;;;;;5945296;27;20422;-80
2024/02/02 08:35:44;;;;;;;3.70;2.13;;;;;;;;;;5952042;28;20008;-80
2024/02/02 08:38:35;;;;;;;1.63;1.40;;;;;;;;;;5927919;28;20063;-79
2024/02/02 08:41:26;;;;;;;2.05;1.83;;;;;;;;;;5944782;28;20047;-80
2024/02/02 08:44:23;;;;;;;1.52;1.42;;;;;;;;;;5929347;28;20414;-80
2024/02/02 08:47:15;;;;;;;1.10;1.05;;;;;;;;;;5944514;28;20055;-80
2024/02/02 08:50:06;;;;;;;2.70;1.55;;;;;;;;;;5944266;28;20044;-79
2024/02/02 08:52:58;;;;;;;2.72;2.05;;;;;;;;;;5944823;28;20048;-80
2024/02/02 08:55:50;;;;;;;2.83;2.05;;;;;;;;;;5927414;28;20044;-80
2024/02/02 08:58:41;;;;;;;2.42;1.85;;;;;;;;;;5943995;28;20051;-80
2024/02/02 09:01:44;;;;;;;3.25;2.45;;;;;;;;;;5944119;28;20052;-80
2024/02/02 09:05:20;;;;;;;2.03;1.05;;;;;;;;;;5944501;28;20062;-80
2024/02/02 09:08:34;;;;;;;4.55;2.67;;;;;;;;;;5934369;28;20417;-79
2024/02/02 09:11:25;;;;;;;2.05;1.50;;;;;;;;;;5927079;28;20064;-79
2024/02/02 09:14:19;;;;;;;3.47;1.60;;;;;;;;;;5943781;28;20052;-81
2024/02/02 09:17:12;;;;;;;1.73;1.63;;;;;;;;;;5926990;28;20044;-79
2024/02/02 09:20:03;;;;;;;2.47;1.55;;;;;;;;;;5926852;28;20048;-79
2024/02/02 09:22:56;;;;;;;1.55;1.25;;;;;;;;;;5944200;28;20078;-80
2024/02/02 09:25:47;;;;;;;4.25;3.00;;;;;;;;;;5943139;28;20418;-79
2024/02/02 09:28:43;;;;;;;7.47;1.67;;;;;;;;;;5928043;28;20044;-79
2024/02/02 09:31:37;;;;;;;10.15;1.70;;;;;;;;;;5926420;28;20047;-80
2024/02/02 09:34:31;;;;;;;2.63;1.90;;;;;;;;;;5926860;28;20067;-81
2024/02/02 09:37:51;;;;;;;2.17;1.58;;;;;;;;;;5943140;28;20048;-80
2024/02/02 09:41:00;;;;;;;9.57;2.13;;;;;;;;;;5922137;28;20338;-80
2024/02/02 09:44:10;;;;;;;3.92;2.38;;;;;;;;;;5912999;28;20495;-80
2024/02/02 09:47:31;;;;;;;7.22;2.67;;;;;;;;;;5926844;28;20040;-78
2024/02/02 09:50:47;;;;;;;1.50;1.15;;;;;;;;;;5911761;28;20581;-79
2024/02/02 09:54:01;;;;;;;3.45;3.00;;;;;;;;;;5927294;28;20051;-79
2024/02/02 09:57:14;;;;;;;6.10;3.08;;;;;;;;;;5895254;28;20049;-79
2024/02/02 10:00:28;;;;;;;4.55;2.55;;;;;;;;;;5925386;28;20051;-79
2024/02/02 10:03:41;;;;;;;7.40;2.70;;;;;;;;;;5926613;28;20591;-79
2024/02/02 10:06:51;;;;;;;3.25;1.80;;;;;;;;;;5911559;28;20093;-79
2024/02/02 10:10:10;;;;;;;7.90;4.50;;;;;;;;;;5894445;28;20098;-79
2024/02/02 10:13:27;;;;;;;13.65;3.92;;;;;;;;;;5926573;28;20047;-78
2024/02/02 10:16:36;;;;;;;3.05;1.83;;;;;;;;;;5911119;28;20135;-79
2024/02/02 10:20:14;;;;;;;8.65;3.70;;;;;;;;;;5911741;28;20040;-79
2024/02/02 10:23:53;;;;;;;3.13;2.60;;;;;;;;;;5913700;28;20439;-79
2024/02/02 10:27:08;;;;;;;3.72;2.25;;;;;;;;;;5896128;28;20060;-80
2024/02/02 10:30:24;;;;;;;6.20;2.50;;;;;;;;;;5926597;28;20056;-79
2024/02/02 10:33:36;;;;;;;1.92;1.65;;;;;;;;;;5910963;28;20063;-79
2024/02/02 10:36:46;;;;;;;3.03;1.15;;;;;;;;;;5909781;28;20045;-80
2024/02/02 10:40:06;;;;;;;4.00;1.73;;;;;;;;;;5909627;28;20047;-80
2024/02/02 10:43:27;;;;;;;3.35;2.00;;;;;;;;;;5909676;28;20087;-79
2024/02/02 10:46:44;;;;;;;3.55;2.17;;;;;;;;;;5925851;28;20044;-80
2024/02/02 10:50:29;;;;;;;10.57;3.28;;;;;;;;;;5909955;28;20790;-79
2024/02/02 10:53:56;;;;;;;1.75;1.63;;;;;;;;;;5906073;28;20045;-80
2024/02/02 10:57:14;;;;;;;1.50;1.20;;;;;;;;;;5910668;28;20127;-80
2024/02/02 11:00:34;;;;;;;0.77;0.77;;;;;;;;;;5910355;28;20115;-79
2024/02/02 11:03:39;;;;;;;8.60;3.40;;;;;;;;;;5910152;28;20044;-80
2024/02/02 11:07:01;;;;;;;3.80;2.38;;;;;;;;;;5925505;28;20052;-80
2024/02/02 11:10:12;;;;;;;3.92;1.45;;;;;;;;;;5909430;28;20509;-79
2024/02/02 11:13:07;;;;;;;6.55;1.17;;;;;;;;;;5924519;28;20040;-80
2024/02/02 11:16:17;;;;;;;6.20;3.20;;;;;;;;;;5911203;28;20040;-80
2024/02/02 11:19:29;;;;;;;6.07;2.92;;;;;;;;;;5910728;28;20477;-79
2024/02/02 11:22:49;;;;;;;5.88;4.70;;;;;;;;;;5910403;28;20048;-79
2024/02/02 11:25:47;;;;;;;;;;;;;;;;;;5910890;28;20072;-80
2024/02/02 11:28:48;;;;;;;2.28;1.80;;;;;;;;;;5909184;28;19999;-80
2024/02/02 11:31:58;;;;;;;3.03;1.98;;;;;;;;;;5925414;28;20399;-79
2024/02/02 11:35:06;;;;;;;4.13;2.40;;;;;;;;;;5908477;28;20441;-79
2024/02/02 11:38:28;;;;;;;5.35;3.25;;;;;;;;;;5910352;28;20040;-80
2024/02/02 11:41:21;;;;;;;7.97;2.20;;;;;;;;;;5909449;28;20522;-79
2024/02/02 11:44:14;;;;;;;11.15;2.65;;;;;;;;;;5908350;28;20047;-79
2024/02/02 11:47:06;;;;;;;1.30;1.20;;;;;;;;;;5924671;28;20045;-80
2024/02/02 11:50:06;;;;;;;2.78;1.90;;;;;;;;;;5925346;28;20102;-79
2024/02/02 11:53:57;;;;;;;3.03;1.83;;;;;;;;;;5909812;28;20040;-79
2024/02/02 11:56:51;;;;;;;4.35;1.58;;;;;;;;;;5908877;28;20060;-79
2024/02/02 11:59:47;;;;;;;3.60;2.33;;;;;;;;;;5909216;28;20052;-79
2024/02/02 12:02:52;;;;;;;5.43;2.63;;;;;;;;;;5924403;28;20052;-79
2024/02/02 12:06:08;;;;;;;3.13;2.50;;;;;;;;;;5924197;28;20283;-79
2024/02/02 12:09:31;;;;;;;6.03;3.40;;;;;;;;;;5909512;28;20040;-79
2024/02/02 12:12:35;;;;;;;5.03;1.90;;;;;;;;;;5907298;28;20063;-79
2024/02/02 12:15:26;;;;;;;1.23;0.95;;;;;;;;;;5909488;28;20473;-79
2024/02/02 12:18:17;;;;;;;2.67;1.13;;;;;;;;;;5909147;28;20118;-79
2024/02/02 12:21:15;;;;;;;4.43;2.05;;;;;;;;;;5924446;28;20136;-79
2024/02/02 12:24:07;;;;;;;3.00;2.40;;;;;;;;;;5908767;28;20051;-80
2024/02/02 12:26:58;;;;;;;9.30;2.90;;;;;;;;;;5924822;28;20071;-79
2024/02/02 12:29:49;;;;;;;19.60;2.10;;;;;;;;;;5924320;28;20064;-79
2024/02/02 12:32:50;;;;;;;8.20;2.13;;;;;;;;;;5923772;28;20059;-79
2024/02/02 12:35:41;;;;;;;3.42;2.30;;;;;;;;;;5907566;28;20055;-79
2024/02/02 12:38:32;;;;;;;3.20;2.72;;;;;;;;;;5908535;28;20045;-79
2024/02/02 12:41:22;;;;;;;19.92;4.75;;;;;;;;;;5908488;28;20478;-79
2024/02/02 12:44:13;;;;;;;4.60;2.63;;;;;;;;;;5908595;28;20040;-79
2024/02/02 12:47:06;;;;;;;2.45;1.90;;;;;;;;;;5923869;28;20047;-78
2024/02/02 12:49:57;;;;;;;6.30;2.25;;;;;;;;;;5923979;28;20049;-78
2024/02/02 12:52:50;;;;;;;3.72;2.67;;;;;;;;;;5907083;28;20062;-79
2024/02/02 12:55:41;;;;;;;67.40;32.63;;;;;;;;;;5907429;28;20045;-79
2024/02/02 12:58:32;;;;;;;10.70;2.42;;;;;;;;;;5907238;28;20045;-79
2024/02/02 13:01:24;;;;;;;2.83;2.45;;;;;;;;;;5923609;28;20044;-79
2024/02/02 13:04:16;;;;;;;2.83;1.52;;;;;;;;;;5923509;28;20502;-79
2024/02/02 13:07:08;;;;;;;2.33;1.35;;;;;;;;;;5908496;28;20055;-78
2024/02/02 13:09:59;;;;;;;4.80;2.63;;;;;;;;;;5907623;28;20051;-79
2024/02/02 13:12:50;;;;;;;3.55;1.90;;;;;;;;;;5907264;28;20197;-79
2024/02/02 13:15:41;;;;;;;8.35;2.33;;;;;;;;;;5907899;28;20045;-79
2024/02/02 13:18:38;;;;;;;2.33;2.13;;;;;;;;;;5926035;28;20056;-79
2024/02/02 13:21:29;;;;;;;1.65;1.45;;;;;;;;;;5927630;28;20095;-79
2024/02/02 13:24:26;;;;;;;11.32;4.50;;;;;;;;;;5912562;28;20137;-79
2024/02/02 13:27:21;;;;;;;8.13;1.75;;;;;;;;;;5911286;28;20131;-79
2024/02/02 13:30:23;;;;;;;7.10;5.57;;;;;;;;;;5927507;28;20057;-78
2024/02/02 13:33:25;;;;;;;7.28;4.03;;;;;;;;;;5911024;28;20579;-79
2024/02/02 13:36:17;;;;;;;8.27;3.08;;;;;;;;;;5926327;28;20052;-79
2024/02/02 13:39:18;;;;;;;3.15;2.65;;;;;;;;;;5927621;28;20064;-79
2024/02/02 13:42:12;;;;;;;4.57;2.70;;;;;;;;;;5910918;28;20060;-79
2024/02/02 13:45:16;;;;;;;8.85;3.30;;;;;;;;;;5894578;28;20425;-81
2024/02/02 13:48:12;;;;;;;3.05;2.05;;;;;;;;;;5910806;28;20044;-79
2024/02/02 13:51:04;;;;;;;8.85;3.67;;;;;;;;;;5926935;28;20417;-79
2024/02/02 13:53:56;;;;;;;2.28;2.08;;;;;;;;;;5911254;28;20417;-79
2024/02/02 13:56:51;;;;;;;4.10;2.97;;;;;;;;;;5910333;28;20068;-78
2024/02/02 13:59:42;;;;;;;9.65;4.63;;;;;;;;;;5927111;28;20056;-80
2024/02/02 14:02:33;;;;;;;9.27;5.10;;;;;;;;;;5926586;28;20051;-79
2024/02/02 14:05:25;;;;;;;12.13;3.88;;;;;;;;;;5910215;28;20040;-79
2024/02/02 14:08:17;;;;;;;12.90;6.63;;;;;;;;;;5909964;28;20052;-78
2024/02/02 14:11:08;;;;;;;6.95;3.90;;;;;;;;;;5910035;28;20056;-80
2024/02/02 14:14:01;;;;;;;5.32;4.22;;;;;;;;;;5911843;28;20044;-79
2024/02/02 14:17:06;;;;;;;3.67;3.33;;;;;;;;;;5910709;28;20490;-79
2024/02/02 14:20:04;;;;;;;13.02;5.63;;;;;;;;;;5910854;28;20131;-78
2024/02/02 14:22:55;;;;;;;;;;;;;;;;;;5911287;28;20051;-78
2024/02/02 14:25:46;;;;;;;4.38;2.75;;;;;;;;;;5927037;28;19927;-79
2024/02/02 14:28:37;;;;;;;5.00;3.85;;;;;;;;;;5910889;28;20074;-78
2024/02/02 14:31:28;;;;;;;10.85;5.45;;;;;;;;;;5911105;28;20773;-78
2024/02/02 14:34:19;;;;;;;8.88;4.68;;;;;;;;;;5926466;28;20052;-79
2024/02/02 14:37:12;;;;;;;13.82;5.88;;;;;;;;;;5926174;28;20055;-78
2024/02/02 14:40:03;;;;;;;7.60;4.28;;;;;;;;;;5926883;28;20052;-78
2024/02/02 14:42:55;;;;;;;9.50;5.47;;;;;;;;;;5911267;28;20583;-79
2024/02/02 14:45:46;;;;;;;9.15;5.15;;;;;;;;;;5909322;28;20049;-78
2024/02/02 14:48:38;;;;;;;7.13;4.93;;;;;;;;;;5926091;28;20490;-79
2024/02/02 14:51:29;;;;;;;22.70;9.10;;;;;;;;;;5911066;28;20141;-79
2024/02/02 14:54:21;;;;;;;15.35;8.60;;;;;;;;;;5926291;28;20057;-78
2024/02/02 14:57:16;;;;;;;26.73;11.68;;;;;;;;;;5926008;28;20048;-78
2024/02/02 15:00:19;;;;;;;27.45;17.27;;;;;;;;;;5893245;28;20418;-78
2024/02/02 15:03:12;;;;;;;25.98;17.33;;;;;;;;;;5894301;28;20048;-78
2024/02/02 15:06:04;;;;;;;12.02;8.05;;;;;;;;;;5909130;28;20040;-78
2024/02/02 15:08:55;;;;;;;17.02;14.13;;;;;;;;;;5926529;28;20127;-79
2024/02/02 15:11:45;;;;;;;20.92;10.90;;;;;;;;;;5891898;28;20051;-79
2024/02/02 15:14:36;;;;;;;17.13;8.43;;;;;;;;;;5909080;28;20498;-79
2024/02/02 15:17:27;;;;;;;14.13;4.68;;;;;;;;;;5908717;28;20064;-79
2024/02/02 15:20:18;;;;;;;11.98;8.73;;;;;;;;;;5909511;28;20053;-80
2024/02/02 15:23:09;;;;;;;9.85;8.02;;;;;;;;;;5909991;28;20064;-80
2024/02/02 15:25:59;;;;;;;8.68;7.80;;;;;;;;;;5909121;28;20494;-80
2024/02/02 15:28:50;;;;;;;16.38;12.32;;;;;;;;;;5908367;28;20051;-78
2024/02/02 15:31:41;;;;;;;19.35;9.18;;;;;;;;;;5909178;28;20502;-78
2024/02/02 15:34:32;;;;;;;17.85;11.77;;;;;;;;;;5909835;28;20049;-78
2024/02/02 15:37:24;;;;;;;19.52;11.77;;;;;;;;;;5908254;28;20040;-78
2024/02/02 15:40:17;;;;;;;29.20;15.02;;;;;;;;;;5907656;28;20072;-78
2024/02/02 15:43:09;;;;;;;17.98;9.48;;;;;;;;;;5908066;28;20052;-77
2024/02/02 15:45:59;;;;;;;19.02;9.70;;;;;;;;;;5925203;28;20122;-78
2024/02/02 15:48:50;;;;;;;12.15;7.68;;;;;;;;;;5909707;28;20049;-78
2024/02/02 15:51:42;;;;;;;8.82;5.30;;;;;;;;;;5924574;28;20492;-78
2024/02/02 15:54:33;;;;;;;14.20;6.95;;;;;;;;;;5908023;28;20045;-78
2024/02/02 15:57:27;;;;;;;7.00;3.72;;;;;;;;;;5908210;28;20051;-78
2024/02/02 16:00:19;;;;;;;21.85;9.52;;;;;;;;;;5924357;28;20044;-78
2024/02/02 16:03:10;;;;;;;12.02;5.35;;;;;;;;;;5907612;28;20052;-78
2024/02/02 16:06:02;;;;;;;13.50;6.00;;;;;;;;;;5907640;28;20111;-77
2024/02/02 16:08:55;;;;;;;21.80;11.43;;;;;;;;;;5908589;28;20123;-78
2024/02/02 16:11:46;;;;;;;5.25;3.83;;;;;;;;;;5908747;28;20048;-78
2024/02/02 16:14:38;;;;;;;7.43;4.70;;;;;;;;;;5909052;28;20040;-78
2024/02/02 16:17:29;;;;;;;12.85;5.07;;;;;;;;;;5907788;28;20055;-78
2024/02/02 16:20:19;;;;;;;7.75;4.97;;;;;;;;;;5909070;28;20062;-78
2024/02/02 16:23:10;;;;;;;13.40;5.47;;;;;;;;;;5924187;28;20048;-77
2024/02/02 16:26:01;;;;;;;6.57;5.45;;;;;;;;;;5924569;28;20349;-78
2024/02/02 16:28:52;;;;;;;13.10;6.05;;;;;;;;;;5908132;28;20051;-78
2024/02/02 16:31:44;;;;;;;10.13;5.00;;;;;;;;;;5923856;28;20037;-78
2024/02/02 16:34:35;;;;;;;17.38;12.55;;;;;;;;;;5908820;28;20037;-78
2024/02/02 16:37:26;;;;;;;20.02;7.40;;;;;;;;;;5890993;28;20040;-78
2024/02/02 16:40:18;;;;;;;16.00;5.45;;;;;;;;;;5923614;28;20048;-78
2024/02/02 16:43:08;;;;;;;10.38;5.50;;;;;;;;;;5907050;28;20051;-77
2024/02/02 16:46:03;;;;;;;7.43;5.32;;;;;;;;;;5907737;28;20040;-78
2024/02/02 16:48:53;;;;;;;4.28;3.35;;;;;;;;;;5907511;28;20051;-78
2024/02/02 16:51:44;;;;;;;5.55;4.78;;;;;;;;;;5923884;28;20051;-78
2024/02/02 16:54:35;;;;;;;11.38;6.05;;;;;;;;;;5928737;28;20129;-78
2024/02/02 16:57:26;;;;;;;5.75;4.22;;;;;;;;;;5928341;28;20051;-77
2024/02/02 17:00:20;;;;;;;7.57;5.35;;;;;;;;;;5912285;28;20499;-79
2024/02/02 17:03:11;;;;;;;7.18;3.33;;;;;;;;;;5913581;28;20045;-81
2024/02/02 17:06:03;;;;;;;9.60;5.72;;;;;;;;;;5928613;28;20124;-77
2024/02/02 17:08:55;;;;;;;9.43;6.60;;;;;;;;;;5912058;28;20063;-78
2024/02/02 17:11:46;;;;;;;22.95;12.18;;;;;;;;;;5912708;28;20044;-78
2024/02/02 17:14:38;;;;;;;10.43;7.85;;;;;;;;;;5911209;28;20048;-79
2024/02/02 17:17:29;;;;;;;13.70;8.52;;;;;;;;;;5911327;28;20044;-78
2024/02/02 17:20:24;;;;;;;11.35;6.22;;;;;;;;;;5928024;28;20120;-78
2024/02/02 17:23:15;;;;;;;12.75;5.45;;;;;;;;;;5911322;28;20463;-77
2024/02/02 17:26:16;;;;;;;12.05;5.45;;;;;;;;;;5912446;28;20045;-78
2024/02/02 17:29:07;;;;;;;12.15;4.25;;;;;;;;;;5927379;28;20467;-78